• Join FlightAware (Why Join?)
  • Login
  • US Flag 
09:10AM EDT


 

Airport Tracker/Info


-or-


 

Live Flight TrackerFlight Track Log ✈ AWI3680 ✈ 14-Jul-2013 ✈ KPHL - KALB

Flight Track Log - Related Links

Times and Time Zones

All times are in EDT time to prevent confusion due to time zone crossing. See the AWI3680 flight status page for this flight to view local times or setup timezone preferences in your user account.

Time Position Orientation Groundspeed Altitude Reporting Facility
EDT Latitude Longitude Course Direction KTS MPH feet Rate Location/Type
07:33PM 39.8667 -75.2833 37° Northeast 147 169 1,000  Level Philadelphia TRACON
07:35PM 39.7833 -75.3333 205° Southwest 232 267 3,900 1,980 Climbing Philadelphia TRACON
07:36PM 39.7999 -74.7829 105° East  Level FlightAware Approximate
07:36PM 39.7333 -75.3333 180° South 270 311 6,000  Level Philadelphia TRACON
07:37PM 39.8028 -74.6805 37° Northeast  Level FlightAware Approximate
07:37PM 39.7500 -75.2333 78° East 290 334 8,300  Level Philadelphia TRACON
07:38PM 39.8745 -74.6089 37° Northeast  Level FlightAware Approximate
07:38PM 39.7667 -75.1333 78° East 300 345 10,400  Level Philadelphia TRACON
07:39PM 39.9496 -74.5504 37° Northeast  Level FlightAware Approximate
07:39PM 39.7833 -75.0167 79° East 325 374 12,000  Level Philadelphia TRACON
07:41PM 39.7922 -74.7503 87° East 361 415 13,800 1,080 Climbing New York Center
07:42PM 39.8475 -74.6561 53° Northeast 323 372 15,500 1,560 Climbing New York Center
07:43PM 39.9247 -74.5847 35° Northeast 316 364 17,000 1,320 Climbing New York Center
07:44PM 40.0022 -74.5106 36° Northeast 327 376 18,200 1,260 Climbing New York Center
07:45PM 40.0797 -74.4331 37° Northeast 347 399 19,500 1,140 Climbing New York Center
07:46PM 40.1592 -74.3586 36° Northeast 347 399 20,500 960 Climbing New York Center
07:47PM 40.2406 -74.2786 37° Northeast 352 405 21,500 1,020 Climbing New York Center
07:48PM 40.3181 -74.1981 38° Northeast 352 405 22,600 900 Climbing New York Center
07:49PM 40.4056 -74.1233 33° Northeast 357 411 23,400 660 Climbing New York Center
07:50PM 40.4969 -74.0597 28° Northeast 362 417 24,000 180 Climbing New York Center
07:52PM 40.7339 -73.9108 25° Northeast 393 452 24,000  Level Boston Center
07:53PM 40.8247 -73.8278 35° Northeast 393 452 24,000 -120 Level Boston Center
07:54PM 40.9092 -73.7253 43° Northeast 393 452 23,800 -600 Descending Boston Center
07:55PM 41.0142 -73.6558 27° Northeast 404 465 22,900 -420 Descending Boston Center
07:56PM 41.1233 -73.5947 23° Northeast 414 476 23,000 -540 Climbing Boston Center
07:57PM 41.2281 -73.5358 23° Northeast 414 476 21,900 -1,200 Descending Boston Center
07:58PM 41.3367 -73.4989 14° North 409 471 20,700 -1,380 Descending Boston Center
07:59PM 41.4492 -73.5036 358° North 403 464 19,200 -1,440 Descending Boston Center
08:00PM 41.5450 -73.5108 357° North 389 448 17,900 -1,260 Descending Boston Center
08:01PM 41.6533 -73.5125 359° North 361 415 16,700 -1,260 Descending Boston Center
08:02PM 41.7408 -73.5139 359° North 341 392 15,400 -1,320 Descending Boston Center
08:03PM 41.8450 -73.5186 358° North 341 392 14,100 -1,200 Descending Boston Center
08:04PM 41.9306 -73.5228 358° North 347 399 13,000 -1,200 Descending Boston Center
08:05PM 42.0306 -73.5217 360° North 336 387 11,700 -1,020 Descending Boston Center
08:06PM 42.1158 -73.5261 358° North 336 387 11,000 -360 Descending Boston Center
08:07PM 42.1992 -73.5414 352° North 316 364 11,000 -840 Level Boston Center
08:08PM 42.2694 -73.5847 335° Northwest 287 330 9,400 -1,740 Descending Boston Center
08:10PM 42.3422 -73.6256 337° Northwest 263 303 7,200 -2,100 Descending Boston Center
08:11PM 42.4231 -73.6692 338° Northwest 256 295 4,800 -2,100 Descending Boston Center
08:12PM 42.4892 -73.7100 336° Northwest 256 295 3,100 -1,140 Descending Boston Center
08:13PM 42.5514 -73.7422 339° North 250 288 2,600 -600 Descending Boston Center
08:14PM 42.6050 -73.7772 334° Northwest 245 282 2,000 -600 Descending Boston Center